sensor_id;sensor_type;location;lat;lon;timestamp;temperature;humidity
8459;DHT22;4266;48.816;9.154;2022-07-24T00:00:24;20.50;99.30
8459;DHT22;4266;48.816;9.154;2022-07-24T00:02:50;20.50;99.40
8459;DHT22;4266;48.816;9.154;2022-07-24T00:05:15;20.40;99.50
8459;DHT22;4266;48.816;9.154;2022-07-24T00:07:41;20.40;99.70
8459;DHT22;4266;48.816;9.154;2022-07-24T00:10:07;20.40;99.70
8459;DHT22;4266;48.816;9.154;2022-07-24T00:12:34;20.30;99.90
8459;DHT22;4266;48.816;9.154;2022-07-24T00:14:59;20.30;99.90
8459;DHT22;4266;48.816;9.154;2022-07-24T00:17:25;20.30;99.90
8459;DHT22;4266;48.816;9.154;2022-07-24T00:19:51;20.20;99.90
8459;DHT22;4266;48.816;9.154;2022-07-24T00:22:17;20.10;99.90
8459;DHT22;4266;48.816;9.154;2022-07-24T00:24:43;20.10;99.90
8459;DHT22;4266;48.816;9.154;2022-07-24T00:27:08;20.00;99.90
8459;DHT22;4266;48.816;9.154;2022-07-24T00:29:34;20.00;99.90
8459;DHT22;4266;48.816;9.154;2022-07-24T00:31:59;20.00;99.90
8459;DHT22;4266;48.816;9.154;2022-07-24T00:34:26;20.00;99.90
8459;DHT22;4266;48.816;9.154;2022-07-24T00:36:51;20.00;99.90
8459;DHT22;4266;48.816;9.154;2022-07-24T00:39:17;19.90;99.90
8459;DHT22;4266;48.816;9.154;2022-07-24T00:41:43;19.90;99.90
8459;DHT22;4266;48.816;9.154;2022-07-24T00:44:10;20.00;99.90
8459;DHT22;4266;48.816;9.154;2022-07-24T00:46:35;20.00;99.90
8459;DHT22;4266;48.816;9.154;2022-07-24T00:49:00;20.10;99.90
8459;DHT22;4266;48.816;9.154;2022-07-24T00:51:25;20.00;99.90
8459;DHT22;4266;48.816;9.154;2022-07-24T00:53:51;20.00;99.90
8459;DHT22;4266;48.816;9.154;2022-07-24T00:56:16;19.90;99.90
8459;DHT22;4266;48.816;9.154;2022-07-24T00:58:42;19.90;99.90
8459;DHT22;4266;48.816;9.154;2022-07-24T01:01:08;19.80;99.90
8459;DHT22;4266;48.816;9.154;2022-07-24T01:03:33;19.80;99.90
8459;DHT22;4266;48.816;9.154;2022-07-24T01:05:59;19.80;99.90
8459;DHT22;4266;48.816;9.154;2022-07-24T01:08:25;19.80;99.90
8459;DHT22;4266;48.816;9.154;2022-07-24T01:10:51;19.80;99.90
8459;DHT22;4266;48.816;9.154;2022-07-24T01:13:16;19.80;99.90
8459;DHT22;4266;48.816;9.154;2022-07-24T01:15:42;19.80;99.90
8459;DHT22;4266;48.816;9.154;2022-07-24T01:18:08;19.70;99.90
8459;DHT22;4266;48.816;9.154;2022-07-24T01:20:35;19.80;99.90
8459;DHT22;4266;48.816;9.154;2022-07-24T01:23:00;19.80;99.90
8459;DHT22;4266;48.816;9.154;2022-07-24T01:25:25;19.80;99.90
8459;DHT22;4266;48.816;9.154;2022-07-24T01:27:51;19.70;99.90
8459;DHT22;4266;48.816;9.154;2022-07-24T01:30:17;19.70;99.90
8459;DHT22;4266;48.816;9.154;2022-07-24T01:32:43;19.70;99.90
8459;DHT22;4266;48.816;9.154;2022-07-24T01:35:09;19.60;99.90
8459;DHT22;4266;48.816;9.154;2022-07-24T01:37:34;19.60;99.90
8459;DHT22;4266;48.816;9.154;2022-07-24T01:40:01;19.60;99.90
8459;DHT22;4266;48.816;9.154;2022-07-24T01:42:26;19.60;99.90
8459;DHT22;4266;48.816;9.154;2022-07-24T01:44:52;19.60;99.90
8459;DHT22;4266;48.816;9.154;2022-07-24T01:47:17;19.60;99.90
8459;DHT22;4266;48.816;9.154;2022-07-24T01:49:43;19.50;99.90
8459;DHT22;4266;48.816;9.154;2022-07-24T01:52:09;19.50;99.90
8459;DHT22;4266;48.816;9.154;2022-07-24T01:54:35;19.50;99.90
8459;DHT22;4266;48.816;9.154;2022-07-24T01:57:01;19.50;99.90
8459;DHT22;4266;48.816;9.154;2022-07-24T01:59:26;19.40;99.90
8459;DHT22;4266;48.816;9.154;2022-07-24T02:01:52;19.40;99.90
8459;DHT22;4266;48.816;9.154;2022-07-24T02:04:18;19.40;99.90
8459;DHT22;4266;48.816;9.154;2022-07-24T02:06:43;19.30;99.90
8459;DHT22;4266;48.816;9.154;2022-07-24T02:09:09;19.30;99.90
8459;DHT22;4266;48.816;9.154;2022-07-24T02:11:34;19.30;99.90
8459;DHT22;4266;48.816;9.154;2022-07-24T02:14:00;19.30;99.90
8459;DHT22;4266;48.816;9.154;2022-07-24T02:16:27;19.20;99.90
8459;DHT22;4266;48.816;9.154;2022-07-24T02:18:52;19.20;99.90
8459;DHT22;4266;48.816;9.154;2022-07-24T02:21:18;19.20;99.90
8459;DHT22;4266;48.816;9.154;2022-07-24T02:23:44;19.10;99.90
8459;DHT22;4266;48.816;9.154;2022-07-24T02:26:10;19.10;99.90
8459;DHT22;4266;48.816;9.154;2022-07-24T02:28:35;19.10;99.90
8459;DHT22;4266;48.816;9.154;2022-07-24T02:31:01;19.00;99.90
8459;DHT22;4266;48.816;9.154;2022-07-24T02:33:27;18.80;99.90
8459;DHT22;4266;48.816;9.154;2022-07-24T02:35:53;18.80;99.90
8459;DHT22;4266;48.816;9.154;2022-07-24T02:38:19;18.90;99.90
8459;DHT22;4266;48.816;9.154;2022-07-24T02:40:44;18.80;99.90
8459;DHT22;4266;48.816;9.154;2022-07-24T02:43:10;18.80;99.90
8459;DHT22;4266;48.816;9.154;2022-07-24T02:45:36;18.80;99.90
8459;DHT22;4266;48.816;9.154;2022-07-24T02:48:02;18.80;99.90
8459;DHT22;4266;48.816;9.154;2022-07-24T02:50:29;18.90;99.90
8459;DHT22;4266;48.816;9.154;2022-07-24T02:52:54;18.80;99.90
8459;DHT22;4266;48.816;9.154;2022-07-24T02:55:20;18.80;99.90
8459;DHT22;4266;48.816;9.154;2022-07-24T02:57:46;18.80;99.90
8459;DHT22;4266;48.816;9.154;2022-07-24T03:00:14;18.80;99.90
8459;DHT22;4266;48.816;9.154;2022-07-24T03:02:39;18.80;99.90
8459;DHT22;4266;48.816;9.154;2022-07-24T03:05:05;18.80;99.90
8459;DHT22;4266;48.816;9.154;2022-07-24T03:07:32;18.70;99.90
8459;DHT22;4266;48.816;9.154;2022-07-24T03:09:57;18.60;99.90
8459;DHT22;4266;48.816;9.154;2022-07-24T03:12:23;18.60;99.90
8459;DHT22;4266;48.816;9.154;2022-07-24T03:14:49;18.50;99.90
8459;DHT22;4266;48.816;9.154;2022-07-24T03:17:15;18.50;99.90
8459;DHT22;4266;48.816;9.154;2022-07-24T03:19:40;18.60;99.90
8459;DHT22;4266;48.816;9.154;2022-07-24T03:22:06;18.60;99.90
8459;DHT22;4266;48.816;9.154;2022-07-24T03:24:32;18.50;99.90
8459;DHT22;4266;48.816;9.154;2022-07-24T03:26:57;18.50;99.90
8459;DHT22;4266;48.816;9.154;2022-07-24T03:29:23;18.50;99.90
8459;DHT22;4266;48.816;9.154;2022-07-24T03:31:48;18.50;99.90
8459;DHT22;4266;48.816;9.154;2022-07-24T03:34:15;18.40;99.90
8459;DHT22;4266;48.816;9.154;2022-07-24T03:36:40;18.40;99.90
8459;DHT22;4266;48.816;9.154;2022-07-24T03:39:07;18.40;99.90
8459;DHT22;4266;48.816;9.154;2022-07-24T03:41:32;18.40;99.90
8459;DHT22;4266;48.816;9.154;2022-07-24T03:43:59;18.30;99.90
8459;DHT22;4266;48.816;9.154;2022-07-24T03:46:24;18.30;99.90
8459;DHT22;4266;48.816;9.154;2022-07-24T03:48:50;18.30;99.90
8459;DHT22;4266;48.816;9.154;2022-07-24T03:51:15;18.20;99.90
8459;DHT22;4266;48.816;9.154;2022-07-24T03:53:42;18.10;99.90
8459;DHT22;4266;48.816;9.154;2022-07-24T03:56:08;18.10;99.90
8459;DHT22;4266;48.816;9.154;2022-07-24T03:58:34;18.10;99.90
8459;DHT22;4266;48.816;9.154;2022-07-24T04:01:00;18.10;99.90
8459;DHT22;4266;48.816;9.154;2022-07-24T04:03:25;18.10;99.90
8459;DHT22;4266;48.816;9.154;2022-07-24T04:05:51;18.10;99.90
8459;DHT22;4266;48.816;9.154;2022-07-24T04:08:17;18.10;99.90
8459;DHT22;4266;48.816;9.154;2022-07-24T04:10:43;18.10;99.90
8459;DHT22;4266;48.816;9.154;2022-07-24T04:13:09;18.10;99.90
8459;DHT22;4266;48.816;9.154;2022-07-24T04:15:34;18.20;99.90
8459;DHT22;4266;48.816;9.154;2022-07-24T04:18:00;18.20;99.90
8459;DHT22;4266;48.816;9.154;2022-07-24T04:20:26;18.30;99.90
8459;DHT22;4266;48.816;9.154;2022-07-24T04:22:52;18.20;99.90
8459;DHT22;4266;48.816;9.154;2022-07-24T04:25:18;18.30;99.90
8459;DHT22;4266;48.816;9.154;2022-07-24T04:27:43;18.40;99.90
8459;DHT22;4266;48.816;9.154;2022-07-24T04:30:10;18.50;99.90
8459;DHT22;4266;48.816;9.154;2022-07-24T04:32:37;18.60;99.90
8459;DHT22;4266;48.816;9.154;2022-07-24T04:35:03;18.70;99.90
8459;DHT22;4266;48.816;9.154;2022-07-24T04:37:30;18.70;99.90
8459;DHT22;4266;48.816;9.154;2022-07-24T04:39:55;18.70;99.90
8459;DHT22;4266;48.816;9.154;2022-07-24T04:42:21;18.80;99.90
8459;DHT22;4266;48.816;9.154;2022-07-24T04:44:47;18.90;99.90
8459;DHT22;4266;48.816;9.154;2022-07-24T04:47:13;18.90;99.90
8459;DHT22;4266;48.816;9.154;2022-07-24T04:49:39;19.10;99.90
8459;DHT22;4266;48.816;9.154;2022-07-24T04:52:05;19.10;99.90
8459;DHT22;4266;48.816;9.154;2022-07-24T04:54:30;19.20;99.90
8459;DHT22;4266;48.816;9.154;2022-07-24T04:56:56;19.30;99.90
8459;DHT22;4266;48.816;9.154;2022-07-24T04:59:21;19.40;99.90
8459;DHT22;4266;48.816;9.154;2022-07-24T05:01:47;19.50;99.90
8459;DHT22;4266;48.816;9.154;2022-07-24T05:04:13;19.60;99.90
8459;DHT22;4266;48.816;9.154;2022-07-24T05:06:38;19.80;99.90
8459;DHT22;4266;48.816;9.154;2022-07-24T05:09:04;20.00;99.90
8459;DHT22;4266;48.816;9.154;2022-07-24T05:11:30;20.10;99.90
8459;DHT22;4266;48.816;9.154;2022-07-24T05:13:55;20.30;99.90
8459;DHT22;4266;48.816;9.154;2022-07-24T05:16:21;20.40;99.90
8459;DHT22;4266;48.816;9.154;2022-07-24T05:18:46;20.60;99.90
8459;DHT22;4266;48.816;9.154;2022-07-24T05:21:12;20.80;99.90
8459;DHT22;4266;48.816;9.154;2022-07-24T05:23:38;21.10;99.90
8459;DHT22;4266;48.816;9.154;2022-07-24T05:26:05;21.30;99.90
8459;DHT22;4266;48.816;9.154;2022-07-24T05:28:31;21.30;99.90
8459;DHT22;4266;48.816;9.154;2022-07-24T05:30:56;21.50;99.60
8459;DHT22;4266;48.816;9.154;2022-07-24T05:33:22;21.60;99.20
8459;DHT22;4266;48.816;9.154;2022-07-24T05:35:48;22.00;98.80
8459;DHT22;4266;48.816;9.154;2022-07-24T05:38:14;21.90;98.80
8459;DHT22;4266;48.816;9.154;2022-07-24T05:40:39;22.20;98.50
8459;DHT22;4266;48.816;9.154;2022-07-24T05:43:05;22.40;98.20
8459;DHT22;4266;48.816;9.154;2022-07-24T05:45:31;22.30;98.30
8459;DHT22;4266;48.816;9.154;2022-07-24T05:47:56;22.50;98.00
8459;DHT22;4266;48.816;9.154;2022-07-24T05:50:23;23.50;97.60
8459;DHT22;4266;48.816;9.154;2022-07-24T05:52:48;23.40;97.50
8459;DHT22;4266;48.816;9.154;2022-07-24T05:55:14;23.80;97.20
8459;DHT22;4266;48.816;9.154;2022-07-24T05:57:40;24.20;96.80
8459;DHT22;4266;48.816;9.154;2022-07-24T06:00:06;24.20;96.00
8459;DHT22;4266;48.816;9.154;2022-07-24T06:02:32;24.40;95.90
8459;DHT22;4266;48.816;9.154;2022-07-24T06:04:58;24.90;95.50
8459;DHT22;4266;48.816;9.154;2022-07-24T06:07:24;24.90;95.00
8459;DHT22;4266;48.816;9.154;2022-07-24T06:09:49;24.80;95.30
8459;DHT22;4266;48.816;9.154;2022-07-24T06:12:15;25.30;95.20
8459;DHT22;4266;48.816;9.154;2022-07-24T06:14:40;25.50;94.40
8459;DHT22;4266;48.816;9.154;2022-07-24T06:17:06;25.80;94.10
8459;DHT22;4266;48.816;9.154;2022-07-24T06:19:32;25.80;94.00
8459;DHT22;4266;48.816;9.154;2022-07-24T06:21:57;26.20;93.40
8459;DHT22;4266;48.816;9.154;2022-07-24T06:24:30;26.50;92.80
8459;DHT22;4266;48.816;9.154;2022-07-24T06:26:56;26.50;92.00
8459;DHT22;4266;48.816;9.154;2022-07-24T06:29:22;26.50;92.00
8459;DHT22;4266;48.816;9.154;2022-07-24T06:31:48;26.80;91.80
8459;DHT22;4266;48.816;9.154;2022-07-24T06:34:13;27.50;91.20
8459;DHT22;4266;48.816;9.154;2022-07-24T06:36:39;27.60;90.50
8459;DHT22;4266;48.816;9.154;2022-07-24T06:39:06;28.20;90.80
8459;DHT22;4266;48.816;9.154;2022-07-24T06:41:31;28.50;90.30
8459;DHT22;4266;48.816;9.154;2022-07-24T06:43:57;28.70;88.60
8459;DHT22;4266;48.816;9.154;2022-07-24T06:46:22;29.00;88.20
8459;DHT22;4266;48.816;9.154;2022-07-24T06:48:49;29.50;86.50
8459;DHT22;4266;48.816;9.154;2022-07-24T06:51:15;29.60;86.30
8459;DHT22;4266;48.816;9.154;2022-07-24T06:53:41;29.60;86.30
8459;DHT22;4266;48.816;9.154;2022-07-24T06:56:07;29.90;84.70
8459;DHT22;4266;48.816;9.154;2022-07-24T06:58:32;28.90;82.40
8459;DHT22;4266;48.816;9.154;2022-07-24T07:00:59;29.00;82.60
8459;DHT22;4266;48.816;9.154;2022-07-24T07:03:24;29.00;82.60
8459;DHT22;4266;48.816;9.154;2022-07-24T07:05:50;29.00;81.70
8459;DHT22;4266;48.816;9.154;2022-07-24T07:08:15;29.40;81.60
8459;DHT22;4266;48.816;9.154;2022-07-24T07:10:41;29.60;81.70
8459;DHT22;4266;48.816;9.154;2022-07-24T07:13:07;29.50;80.10
8459;DHT22;4266;48.816;9.154;2022-07-24T07:15:35;29.40;80.40
8459;DHT22;4266;48.816;9.154;2022-07-24T07:18:03;29.90;80.70
8459;DHT22;4266;48.816;9.154;2022-07-24T07:20:29;29.80;78.50
8459;DHT22;4266;48.816;9.154;2022-07-24T07:22:55;29.70;78.30
8459;DHT22;4266;48.816;9.154;2022-07-24T07:25:21;29.80;78.30
8459;DHT22;4266;48.816;9.154;2022-07-24T07:27:47;30.00;78.40
8459;DHT22;4266;48.816;9.154;2022-07-24T07:30:12;30.40;78.50
8459;DHT22;4266;48.816;9.154;2022-07-24T07:32:38;30.30;75.50
8459;DHT22;4266;48.816;9.154;2022-07-24T07:35:05;29.90;74.60
8459;DHT22;4266;48.816;9.154;2022-07-24T07:37:31;29.90;74.70
8459;DHT22;4266;48.816;9.154;2022-07-24T07:39:56;30.50;74.10
8459;DHT22;4266;48.816;9.154;2022-07-24T07:42:22;30.20;74.80
8459;DHT22;4266;48.816;9.154;2022-07-24T07:44:48;30.10;75.40
8459;DHT22;4266;48.816;9.154;2022-07-24T07:47:13;30.00;72.60
8459;DHT22;4266;48.816;9.154;2022-07-24T07:49:39;29.90;73.60
8459;DHT22;4266;48.816;9.154;2022-07-24T07:52:05;30.20;73.80
8459;DHT22;4266;48.816;9.154;2022-07-24T07:54:31;30.80;73.70
8459;DHT22;4266;48.816;9.154;2022-07-24T07:56:57;30.70;73.40
8459;DHT22;4266;48.816;9.154;2022-07-24T07:59:22;29.70;71.40
8459;DHT22;4266;48.816;9.154;2022-07-24T08:01:48;30.00;73.40
8459;DHT22;4266;48.816;9.154;2022-07-24T08:04:13;30.30;72.60
8459;DHT22;4266;48.816;9.154;2022-07-24T08:06:39;30.60;74.20
8459;DHT22;4266;48.816;9.154;2022-07-24T08:09:05;30.80;72.20
8459;DHT22;4266;48.816;9.154;2022-07-24T08:11:31;30.80;72.10
8459;DHT22;4266;48.816;9.154;2022-07-24T08:13:57;31.20;70.80
8459;DHT22;4266;48.816;9.154;2022-07-24T08:16:23;30.80;69.90
8459;DHT22;4266;48.816;9.154;2022-07-24T08:18:49;30.80;69.90
8459;DHT22;4266;48.816;9.154;2022-07-24T08:21:14;30.80;69.80
8459;DHT22;4266;48.816;9.154;2022-07-24T08:23:40;31.20;71.90
8459;DHT22;4266;48.816;9.154;2022-07-24T08:26:06;31.40;71.70
8459;DHT22;4266;48.816;9.154;2022-07-24T08:28:31;31.60;70.40
8459;DHT22;4266;48.816;9.154;2022-07-24T08:30:57;32.00;71.10
8459;DHT22;4266;48.816;9.154;2022-07-24T08:33:23;32.20;69.50
8459;DHT22;4266;48.816;9.154;2022-07-24T08:35:48;32.20;69.10
8459;DHT22;4266;48.816;9.154;2022-07-24T08:38:14;32.20;67.80
8459;DHT22;4266;48.816;9.154;2022-07-24T08:40:40;32.40;68.90
8459;DHT22;4266;48.816;9.154;2022-07-24T08:43:06;32.30;66.70
8459;DHT22;4266;48.816;9.154;2022-07-24T08:45:33;32.30;66.70
8459;DHT22;4266;48.816;9.154;2022-07-24T08:47:57;32.20;67.30
8459;DHT22;4266;48.816;9.154;2022-07-24T08:50:23;31.90;66.00
8459;DHT22;4266;48.816;9.154;2022-07-24T08:52:48;31.50;66.10
8459;DHT22;4266;48.816;9.154;2022-07-24T08:55:15;32.40;64.30
8459;DHT22;4266;48.816;9.154;2022-07-24T08:57:40;32.40;64.30
8459;DHT22;4266;48.816;9.154;2022-07-24T09:00:07;31.80;65.90
8459;DHT22;4266;48.816;9.154;2022-07-24T09:02:33;32.70;65.30
8459;DHT22;4266;48.816;9.154;2022-07-24T09:04:59;32.60;64.30
8459;DHT22;4266;48.816;9.154;2022-07-24T09:07:25;32.60;64.20
8459;DHT22;4266;48.816;9.154;2022-07-24T09:09:57;32.60;64.10
8459;DHT22;4266;48.816;9.154;2022-07-24T09:12:22;32.70;63.10
8459;DHT22;4266;48.816;9.154;2022-07-24T09:14:48;32.60;63.20
8459;DHT22;4266;48.816;9.154;2022-07-24T09:17:17;32.00;61.40
8459;DHT22;4266;48.816;9.154;2022-07-24T09:19:52;32.50;61.50
8459;DHT22;4266;48.816;9.154;2022-07-24T09:25:20;32.60;61.70
8459;DHT22;4266;48.816;9.154;2022-07-24T09:27:49;32.50;61.60
8459;DHT22;4266;48.816;9.154;2022-07-24T09:30:29;32.90;63.70
8459;DHT22;4266;48.816;9.154;2022-07-24T09:32:56;33.00;62.30
8459;DHT22;4266;48.816;9.154;2022-07-24T09:35:24;33.40;62.30
8459;DHT22;4266;48.816;9.154;2022-07-24T09:37:53;33.60;62.30
8459;DHT22;4266;48.816;9.154;2022-07-24T09:40:18;33.90;62.00
8459;DHT22;4266;48.816;9.154;2022-07-24T09:42:45;32.70;61.90
8459;DHT22;4266;48.816;9.154;2022-07-24T09:45:12;32.00;61.00
8459;DHT22;4266;48.816;9.154;2022-07-24T09:47:39;31.70;61.90
8459;DHT22;4266;48.816;9.154;2022-07-24T09:50:12;31.60;61.80
8459;DHT22;4266;48.816;9.154;2022-07-24T09:52:37;31.70;61.30
8459;DHT22;4266;48.816;9.154;2022-07-24T09:55:03;31.10;60.40
8459;DHT22;4266;48.816;9.154;2022-07-24T09:57:29;30.90;61.70
8459;DHT22;4266;48.816;9.154;2022-07-24T09:59:56;30.60;62.50
8459;DHT22;4266;48.816;9.154;2022-07-24T10:02:23;30.40;62.60
8459;DHT22;4266;48.816;9.154;2022-07-24T10:04:49;30.40;62.60
8459;DHT22;4266;48.816;9.154;2022-07-24T10:07:15;30.60;63.10
8459;DHT22;4266;48.816;9.154;2022-07-24T10:09:41;31.10;62.70
8459;DHT22;4266;48.816;9.154;2022-07-24T10:12:06;31.30;62.60
8459;DHT22;4266;48.816;9.154;2022-07-24T10:14:32;32.00;61.80
8459;DHT22;4266;48.816;9.154;2022-07-24T10:17:04;32.40;61.10
8459;DHT22;4266;48.816;9.154;2022-07-24T10:19:30;32.30;61.00
8459;DHT22;4266;48.816;9.154;2022-07-24T10:21:54;32.80;62.50
8459;DHT22;4266;48.816;9.154;2022-07-24T10:24:36;33.10;60.30
8459;DHT22;4266;48.816;9.154;2022-07-24T10:27:00;33.00;60.20
8459;DHT22;4266;48.816;9.154;2022-07-24T10:29:23;32.90;60.70
8459;DHT22;4266;48.816;9.154;2022-07-24T10:31:53;33.00;60.20
8459;DHT22;4266;48.816;9.154;2022-07-24T10:37:15;33.10;59.30
8459;DHT22;4266;48.816;9.154;2022-07-24T10:39:49;33.10;59.30
8459;DHT22;4266;48.816;9.154;2022-07-24T10:42:14;32.10;59.60
8459;DHT22;4266;48.816;9.154;2022-07-24T10:44:39;32.00;59.50
8459;DHT22;4266;48.816;9.154;2022-07-24T10:47:09;31.30;58.60
8459;DHT22;4266;48.816;9.154;2022-07-24T10:49:45;31.30;58.60
8459;DHT22;4266;48.816;9.154;2022-07-24T10:52:28;31.10;59.30
8459;DHT22;4266;48.816;9.154;2022-07-24T11:00:20;30.80;59.10
8459;DHT22;4266;48.816;9.154;2022-07-24T11:02:47;30.80;59.80
8459;DHT22;4266;48.816;9.154;2022-07-24T11:05:22;31.00;60.60
8459;DHT22;4266;48.816;9.154;2022-07-24T11:10:29;31.90;60.50
8459;DHT22;4266;48.816;9.154;2022-07-24T11:12:47;32.00;58.90
8459;DHT22;4266;48.816;9.154;2022-07-24T11:15:13;31.90;59.90
8459;DHT22;4266;48.816;9.154;2022-07-24T11:17:45;32.20;59.20
8459;DHT22;4266;48.816;9.154;2022-07-24T11:20:13;32.20;59.30
8459;DHT22;4266;48.816;9.154;2022-07-24T11:22:39;32.00;59.30
8459;DHT22;4266;48.816;9.154;2022-07-24T11:25:05;31.90;59.00
8459;DHT22;4266;48.816;9.154;2022-07-24T11:27:37;31.90;58.10
8459;DHT22;4266;48.816;9.154;2022-07-24T11:29:55;31.60;57.90
8459;DHT22;4266;48.816;9.154;2022-07-24T11:32:21;31.60;57.80
8459;DHT22;4266;48.816;9.154;2022-07-24T11:34:50;31.40;58.30
8459;DHT22;4266;48.816;9.154;2022-07-24T11:37:14;31.70;59.80
8459;DHT22;4266;48.816;9.154;2022-07-24T11:39:41;32.00;58.80
8459;DHT22;4266;48.816;9.154;2022-07-24T11:42:07;32.00;58.80
8459;DHT22;4266;48.816;9.154;2022-07-24T11:44:33;32.40;58.70
8459;DHT22;4266;48.816;9.154;2022-07-24T11:46:59;32.80;57.40
8459;DHT22;4266;48.816;9.154;2022-07-24T11:49:23;32.90;57.00
8459;DHT22;4266;48.816;9.154;2022-07-24T11:51:49;32.60;57.20
8459;DHT22;4266;48.816;9.154;2022-07-24T11:54:19;32.90;58.00
8459;DHT22;4266;48.816;9.154;2022-07-24T11:56:41;32.90;58.00
8459;DHT22;4266;48.816;9.154;2022-07-24T11:59:29;32.60;56.50
8459;DHT22;4266;48.816;9.154;2022-07-24T12:01:55;32.70;57.60
8459;DHT22;4266;48.816;9.154;2022-07-24T12:04:20;32.70;57.80
8459;DHT22;4266;48.816;9.154;2022-07-24T12:06:45;33.20;57.20
8459;DHT22;4266;48.816;9.154;2022-07-24T12:09:11;33.40;57.40
8459;DHT22;4266;48.816;9.154;2022-07-24T12:11:36;33.50;56.90
8459;DHT22;4266;48.816;9.154;2022-07-24T12:14:04;33.20;55.40
8459;DHT22;4266;48.816;9.154;2022-07-24T12:16:28;33.20;56.30
8459;DHT22;4266;48.816;9.154;2022-07-24T12:21:33;32.90;56.70
8459;DHT22;4266;48.816;9.154;2022-07-24T12:23:58;32.90;56.70
8459;DHT22;4266;48.816;9.154;2022-07-24T12:26:24;32.80;55.40
8459;DHT22;4266;48.816;9.154;2022-07-24T12:29:07;33.20;56.00
8459;DHT22;4266;48.816;9.154;2022-07-24T12:31:15;33.20;56.80
8459;DHT22;4266;48.816;9.154;2022-07-24T12:33:41;32.80;57.10
8459;DHT22;4266;48.816;9.154;2022-07-24T12:36:10;32.40;56.50
8459;DHT22;4266;48.816;9.154;2022-07-24T12:38:36;32.00;55.90
8459;DHT22;4266;48.816;9.154;2022-07-24T12:43:48;32.60;58.00
8459;DHT22;4266;48.816;9.154;2022-07-24T12:46:12;32.70;57.00
8459;DHT22;4266;48.816;9.154;2022-07-24T12:48:38;32.70;56.50
8459;DHT22;4266;48.816;9.154;2022-07-24T12:51:06;32.90;56.30
8459;DHT22;4266;48.816;9.154;2022-07-24T12:53:32;32.50;56.30
8459;DHT22;4266;48.816;9.154;2022-07-24T12:56:03;31.90;57.00
8459;DHT22;4266;48.816;9.154;2022-07-24T12:58:28;31.90;56.90
8459;DHT22;4266;48.816;9.154;2022-07-24T13:00:56;31.80;56.30
8459;DHT22;4266;48.816;9.154;2022-07-24T13:03:24;31.50;56.50
8459;DHT22;4266;48.816;9.154;2022-07-24T13:05:54;31.40;56.60
8459;DHT22;4266;48.816;9.154;2022-07-24T13:08:15;31.40;56.70
8459;DHT22;4266;48.816;9.154;2022-07-24T13:10:40;31.50;57.40
8459;DHT22;4266;48.816;9.154;2022-07-24T13:13:07;32.20;56.90
8459;DHT22;4266;48.816;9.154;2022-07-24T13:15:32;32.20;56.90
8459;DHT22;4266;48.816;9.154;2022-07-24T13:17:58;31.90;56.60
8459;DHT22;4266;48.816;9.154;2022-07-24T13:20:24;31.80;56.50
8459;DHT22;4266;48.816;9.154;2022-07-24T13:22:50;31.90;55.30
8459;DHT22;4266;48.816;9.154;2022-07-24T13:25:16;32.20;56.30
8459;DHT22;4266;48.816;9.154;2022-07-24T13:27:42;32.10;56.30
8459;DHT22;4266;48.816;9.154;2022-07-24T13:30:09;32.10;55.90
8459;DHT22;4266;48.816;9.154;2022-07-24T13:32:35;32.10;55.50
8459;DHT22;4266;48.816;9.154;2022-07-24T13:35:02;32.20;55.50
8459;DHT22;4266;48.816;9.154;2022-07-24T13:37:28;32.00;54.50
8459;DHT22;4266;48.816;9.154;2022-07-24T13:39:54;32.00;54.50
8459;DHT22;4266;48.816;9.154;2022-07-24T13:42:19;32.10;55.00
8459;DHT22;4266;48.816;9.154;2022-07-24T13:44:47;32.20;55.60
8459;DHT22;4266;48.816;9.154;2022-07-24T13:47:13;32.20;55.20
8459;DHT22;4266;48.816;9.154;2022-07-24T13:49:39;32.10;55.10
8459;DHT22;4266;48.816;9.154;2022-07-24T13:52:04;32.10;55.10
8459;DHT22;4266;48.816;9.154;2022-07-24T13:54:30;32.30;55.50
8459;DHT22;4266;48.816;9.154;2022-07-24T13:56:57;31.90;55.20
8459;DHT22;4266;48.816;9.154;2022-07-24T13:59:22;32.00;55.20
8459;DHT22;4266;48.816;9.154;2022-07-24T14:01:48;31.80;54.70
8459;DHT22;4266;48.816;9.154;2022-07-24T14:04:13;31.90;55.60
8459;DHT22;4266;48.816;9.154;2022-07-24T14:06:39;32.10;55.60
8459;DHT22;4266;48.816;9.154;2022-07-24T14:09:05;32.20;55.10
8459;DHT22;4266;48.816;9.154;2022-07-24T14:11:30;32.20;56.10
8459;DHT22;4266;48.816;9.154;2022-07-24T14:13:56;32.00;54.60
8459;DHT22;4266;48.816;9.154;2022-07-24T14:16:22;31.70;54.60
8459;DHT22;4266;48.816;9.154;2022-07-24T14:18:49;31.70;54.50
8459;DHT22;4266;48.816;9.154;2022-07-24T14:21:14;31.70;54.40
8459;DHT22;4266;48.816;9.154;2022-07-24T14:23:40;31.50;54.30
8459;DHT22;4266;48.816;9.154;2022-07-24T14:26:05;31.50;54.50
8459;DHT22;4266;48.816;9.154;2022-07-24T14:28:31;31.30;54.50
8459;DHT22;4266;48.816;9.154;2022-07-24T14:30:57;31.10;54.30
8459;DHT22;4266;48.816;9.154;2022-07-24T14:33:22;31.20;54.10
8459;DHT22;4266;48.816;9.154;2022-07-24T14:35:48;31.10;54.00
8459;DHT22;4266;48.816;9.154;2022-07-24T14:38:14;31.10;54.00
8459;DHT22;4266;48.816;9.154;2022-07-24T14:40:39;31.10;54.10
8459;DHT22;4266;48.816;9.154;2022-07-24T14:43:05;31.20;53.80
8459;DHT22;4266;48.816;9.154;2022-07-24T14:45:31;31.50;54.20
8459;DHT22;4266;48.816;9.154;2022-07-24T14:47:57;31.20;53.90
8459;DHT22;4266;48.816;9.154;2022-07-24T14:50:23;31.20;53.90
8459;DHT22;4266;48.816;9.154;2022-07-24T14:52:48;31.40;54.20
8459;DHT22;4266;48.816;9.154;2022-07-24T14:55:14;31.50;54.10
8459;DHT22;4266;48.816;9.154;2022-07-24T14:57:40;31.50;53.80
8459;DHT22;4266;48.816;9.154;2022-07-24T15:00:06;31.40;53.20
8459;DHT22;4266;48.816;9.154;2022-07-24T15:02:33;31.50;54.10
8459;DHT22;4266;48.816;9.154;2022-07-24T15:04:59;31.40;54.00
8459;DHT22;4266;48.816;9.154;2022-07-24T15:07:25;31.60;53.60
8459;DHT22;4266;48.816;9.154;2022-07-24T15:09:50;31.60;54.20
8459;DHT22;4266;48.816;9.154;2022-07-24T15:12:16;31.60;54.00
8459;DHT22;4266;48.816;9.154;2022-07-24T15:14:41;31.70;53.70
8459;DHT22;4266;48.816;9.154;2022-07-24T15:17:07;31.60;53.10
8459;DHT22;4266;48.816;9.154;2022-07-24T15:19:33;31.60;53.20
8459;DHT22;4266;48.816;9.154;2022-07-24T15:21:59;31.60;53.20
8459;DHT22;4266;48.816;9.154;2022-07-24T15:24:25;31.50;53.10
8459;DHT22;4266;48.816;9.154;2022-07-24T15:26:50;31.50;52.90
8459;DHT22;4266;48.816;9.154;2022-07-24T15:29:16;31.30;53.00
8459;DHT22;4266;48.816;9.154;2022-07-24T15:31:42;31.30;54.00
8459;DHT22;4266;48.816;9.154;2022-07-24T15:34:07;31.60;53.20
8459;DHT22;4266;48.816;9.154;2022-07-24T15:36:33;31.70;54.20
8459;DHT22;4266;48.816;9.154;2022-07-24T15:38:59;31.50;53.90
8459;DHT22;4266;48.816;9.154;2022-07-24T15:41:25;31.50;54.00
8459;DHT22;4266;48.816;9.154;2022-07-24T15:43:51;31.40;53.90
8459;DHT22;4266;48.816;9.154;2022-07-24T15:46:17;31.70;54.10
8459;DHT22;4266;48.816;9.154;2022-07-24T15:48:44;31.70;54.40
8459;DHT22;4266;48.816;9.154;2022-07-24T15:51:09;31.70;54.40
8459;DHT22;4266;48.816;9.154;2022-07-24T15:53:35;31.80;54.40
8459;DHT22;4266;48.816;9.154;2022-07-24T15:56:01;31.50;53.50
8459;DHT22;4266;48.816;9.154;2022-07-24T15:58:26;31.50;53.80
8459;DHT22;4266;48.816;9.154;2022-07-24T16:00:52;31.50;54.20
8459;DHT22;4266;48.816;9.154;2022-07-24T16:03:18;31.30;53.80
8459;DHT22;4266;48.816;9.154;2022-07-24T16:05:43;31.40;53.90
8459;DHT22;4266;48.816;9.154;2022-07-24T16:08:09;31.30;52.80
8459;DHT22;4266;48.816;9.154;2022-07-24T16:10:35;31.30;53.00
8459;DHT22;4266;48.816;9.154;2022-07-24T16:13:00;31.30;52.90